createdAt,value
2023-05-05T00:02:19.109Z,7.60
2023-05-05T00:05:21.099Z,8.80
2023-05-05T00:08:23.047Z,7.27
2023-05-05T00:11:25.927Z,7.73
2023-05-05T00:14:27.578Z,6.40
2023-05-05T00:17:29.227Z,9.70
2023-05-05T00:20:31.442Z,7.93
2023-05-05T00:23:33.072Z,9.03
2023-05-05T00:26:34.665Z,8.10
2023-05-05T00:29:36.264Z,6.00
2023-05-05T00:32:37.897Z,7.27
2023-05-05T00:35:39.585Z,6.50
2023-05-05T00:38:41.189Z,9.97
2023-05-05T00:41:42.802Z,7.80
2023-05-05T00:44:44.891Z,7.90
2023-05-05T00:47:52.328Z,7.13
2023-05-05T00:50:53.990Z,7.60
2023-05-05T00:53:56.016Z,8.80
2023-05-05T00:56:57.686Z,9.73
2023-05-05T00:59:59.762Z,9.83
2023-05-05T01:03:01.519Z,13.73
2023-05-05T01:06:41.158Z,7.27
2023-05-05T01:10:10.963Z,9.60
2023-05-05T01:13:42.619Z,9.70
2023-05-05T01:16:59.823Z,7.87
2023-05-05T01:20:29.337Z,8.40
2023-05-05T01:23:58.962Z,8.97
2023-05-05T01:27:48.170Z,10.70
2023-05-05T01:31:14.231Z,8.37
2023-05-05T01:34:19.155Z,12.00
2023-05-05T01:37:53.487Z,7.57
2023-05-05T01:41:17.179Z,9.47
2023-05-05T01:44:20.248Z,6.43
2023-05-05T01:47:23.518Z,8.20
2023-05-05T01:50:28.683Z,10.23
2023-05-05T01:53:31.866Z,8.70
2023-05-05T01:56:34.512Z,9.00
2023-05-05T01:59:37.857Z,13.03
2023-05-05T02:02:40.449Z,11.60
2023-05-05T02:05:44.371Z,14.13
2023-05-05T02:08:47.499Z,9.80
2023-05-05T02:11:49.771Z,10.60
2023-05-05T02:14:52.119Z,9.67
2023-05-05T02:17:54.149Z,10.07
2023-05-05T02:20:55.925Z,9.70
2023-05-05T02:23:58.274Z,11.13
2023-05-05T02:27:03.491Z,10.80
2023-05-05T02:30:09.307Z,11.90
2023-05-05T02:33:13.778Z,11.47
2023-05-05T02:36:20.211Z,10.63
2023-05-05T02:39:32.712Z,9.00
2023-05-05T02:42:38.395Z,9.13
2023-05-05T02:45:40.131Z,9.10
2023-05-05T02:48:42.037Z,9.63
2023-05-05T02:51:43.586Z,10.33
2023-05-05T02:54:45.275Z,8.80
2023-05-05T02:58:06.639Z,11.20
2023-05-05T03:01:16.875Z,10.83
2023-05-05T03:04:38.044Z,9.50
2023-05-05T03:07:44.835Z,12.07
2023-05-05T03:11:07.925Z,11.97
2023-05-05T03:14:12.152Z,10.93
2023-05-05T03:17:17.197Z,10.87
2023-05-05T03:20:20.177Z,11.67
2023-05-05T03:23:22.735Z,11.67
2023-05-05T03:26:24.701Z,12.30
2023-05-05T03:29:26.694Z,10.90
2023-05-05T03:32:28.759Z,12.90
2023-05-05T03:35:30.585Z,9.53
2023-05-05T03:38:32.222Z,12.30
2023-05-05T03:41:33.948Z,10.77
2023-05-05T03:44:35.864Z,11.00
2023-05-05T03:47:37.517Z,9.90
2023-05-05T03:50:39.185Z,11.27
2023-05-05T03:53:40.906Z,15.53
2023-05-05T03:56:42.784Z,11.93
2023-05-05T03:59:44.395Z,12.70
2023-05-05T04:02:46.142Z,12.37
2023-05-05T04:05:48.193Z,12.17
2023-05-05T04:08:49.738Z,13.50
2023-05-05T04:11:51.411Z,13.73
2023-05-05T04:14:53.004Z,13.23
2023-05-05T04:17:54.665Z,14.87
2023-05-05T04:20:56.259Z,14.47
2023-05-05T04:23:58.372Z,11.57
2023-05-05T04:27:00.174Z,12.10
2023-05-05T04:30:01.726Z,11.57
2023-05-05T04:33:03.532Z,12.57
2023-05-05T04:36:05.314Z,11.97
2023-05-05T04:39:07.327Z,15.33
2023-05-05T04:42:08.970Z,12.03
2023-05-05T04:45:11.026Z,12.97
2023-05-05T04:48:12.591Z,14.87
2023-05-05T04:51:14.203Z,14.80
2023-05-05T04:54:15.834Z,11.27
2023-05-05T04:57:17.471Z,10.10
2023-05-05T05:00:19.137Z,11.77
2023-05-05T05:03:21.035Z,12.53
2023-05-05T05:06:22.779Z,13.57
2023-05-05T05:09:24.732Z,12.13
2023-05-05T05:12:26.311Z,13.07
2023-05-05T05:15:27.999Z,12.50
2023-05-05T05:18:29.672Z,15.27
2023-05-05T05:21:31.671Z,13.40
2023-05-05T05:24:34.677Z,14.50
2023-05-05T05:27:36.460Z,14.00
2023-05-05T05:30:38.058Z,12.87
2023-05-05T05:33:41.921Z,13.13
2023-05-05T05:36:43.498Z,12.57
2023-05-05T05:39:51.966Z,14.23
2023-05-05T05:42:53.546Z,12.73
2023-05-05T05:45:55.249Z,13.00
2023-05-05T05:48:57.299Z,14.07
2023-05-05T05:51:58.901Z,13.07
2023-05-05T05:55:00.524Z,11.50
2023-05-05T05:58:02.152Z,12.03
2023-05-05T06:01:04.897Z,13.73
2023-05-05T06:04:06.542Z,11.63
2023-05-05T06:07:08.174Z,18.43
2023-05-05T06:10:25.859Z,11.20
2023-05-05T06:13:29.285Z,15.07
2023-05-05T06:16:30.966Z,11.87
2023-05-05T06:19:33.025Z,11.73
2023-05-05T06:22:34.692Z,14.47
2023-05-05T06:25:36.643Z,10.77
2023-05-05T06:28:38.322Z,12.43
2023-05-05T06:31:40.339Z,11.97
2023-05-05T06:34:44.499Z,14.60
2023-05-05T06:37:46.061Z,13.53
2023-05-05T06:40:49.527Z,12.53
2023-05-05T06:43:51.215Z,13.03
2023-05-05T06:46:54.067Z,12.60
2023-05-05T06:49:55.662Z,18.03
2023-05-05T06:52:57.283Z,13.97
2023-05-05T06:55:58.894Z,15.90
2023-05-05T06:59:00.553Z,15.47
2023-05-05T07:02:02.196Z,11.70
2023-05-05T07:05:04.262Z,12.37
2023-05-05T07:08:06.825Z,12.27
2023-05-05T07:11:08.393Z,10.87
2023-05-05T07:14:09.974Z,11.27
2023-05-05T07:17:11.804Z,11.83
2023-05-05T07:20:13.503Z,16.80
2023-05-05T07:23:15.227Z,16.17
2023-05-05T07:26:16.869Z,12.77
2023-05-05T07:29:18.514Z,12.03
2023-05-05T07:32:20.244Z,12.40
2023-05-05T07:35:21.887Z,13.30
2023-05-05T07:38:25.182Z,10.73
2023-05-05T07:41:26.782Z,13.47
2023-05-05T07:44:28.412Z,11.50
2023-05-05T07:47:30.271Z,10.13
2023-05-05T07:50:32.124Z,12.13
2023-05-05T07:53:33.686Z,11.93
2023-05-05T07:56:35.381Z,13.93
2023-05-05T07:59:38.472Z,10.53
2023-05-05T08:02:40.346Z,14.00
2023-05-05T08:05:42.465Z,14.80
2023-05-05T08:08:44.041Z,13.17
2023-05-05T08:11:45.702Z,11.90
2023-05-05T08:14:47.341Z,9.53
2023-05-05T08:17:51.479Z,8.33
2023-05-05T08:20:54.526Z,8.87
2023-05-05T08:23:56.111Z,9.30
2023-05-05T08:26:57.713Z,10.50
2023-05-05T08:29:59.465Z,11.20
2023-05-05T08:33:01.199Z,7.60
2023-05-05T08:36:02.853Z,8.13
2023-05-05T08:39:04.555Z,7.80
2023-05-05T08:42:06.617Z,8.13
2023-05-05T08:45:10.368Z,8.37
2023-05-05T08:48:13.320Z,7.83
2023-05-05T08:51:19.650Z,8.07
2023-05-05T08:54:27.106Z,8.37
2023-05-05T08:57:36.452Z,8.40
2023-05-05T09:00:40.893Z,9.50
2023-05-05T09:03:43.671Z,9.40
2023-05-05T09:06:45.645Z,8.70
2023-05-05T09:09:48.032Z,8.53
2023-05-05T09:12:51.288Z,9.23
2023-05-05T09:15:53.112Z,11.33
2023-05-05T09:19:02.508Z,10.83
2023-05-05T09:22:04.086Z,13.43
2023-05-05T09:25:08.524Z,7.87
2023-05-05T09:28:15.581Z,9.50
2023-05-05T09:31:17.208Z,11.23
2023-05-05T09:34:18.895Z,12.00
2023-05-05T09:37:32.620Z,8.87
2023-05-05T09:40:53.783Z,7.63
2023-05-05T09:43:55.433Z,7.87
2023-05-05T09:46:58.193Z,11.33
2023-05-05T09:49:59.902Z,8.97
2023-05-05T09:53:03.246Z,8.53
2023-05-05T09:56:05.446Z,7.90
2023-05-05T09:59:11.767Z,6.53
2023-05-05T10:02:13.739Z,7.63
2023-05-05T10:05:17.480Z,6.73
2023-05-05T10:08:24.383Z,6.80
2023-05-05T10:11:26.356Z,6.53
2023-05-05T10:14:31.536Z,7.33
2023-05-05T10:17:36.856Z,11.13
2023-05-05T10:20:40.178Z,6.20
2023-05-05T10:23:56.082Z,5.83
2023-05-05T10:26:59.900Z,5.47
2023-05-05T10:30:05.133Z,4.73
2023-05-05T10:33:31.647Z,4.60
2023-05-05T10:36:34.527Z,6.17
2023-05-05T10:39:37.337Z,5.27
2023-05-05T10:42:40.033Z,4.50
2023-05-05T10:45:42.661Z,5.53
2023-05-05T10:49:06.562Z,4.87
2023-05-05T10:52:23.400Z,3.70
2023-05-05T10:55:39.056Z,3.80
2023-05-05T10:58:58.258Z,3.10
2023-05-05T11:02:01.700Z,3.63
2023-05-05T11:05:18.109Z,3.70
2023-05-05T11:08:27.007Z,4.10
2023-05-05T11:12:05.427Z,2.97
2023-05-05T11:15:25.923Z,2.60
2023-05-05T11:18:35.624Z,2.87
2023-05-05T11:22:00.982Z,4.40
2023-05-05T11:25:37.821Z,3.27
2023-05-05T11:29:03.813Z,2.90
2023-05-05T11:32:13.118Z,3.33
2023-05-05T11:35:15.420Z,3.40
2023-05-05T11:38:20.785Z,3.70
2023-05-05T11:41:34.280Z,3.47
2023-05-05T11:44:36.097Z,3.20
2023-05-05T11:47:37.838Z,2.83
2023-05-05T11:50:39.982Z,3.00
2023-05-05T11:53:46.396Z,4.13
2023-05-05T11:56:54.976Z,3.37
2023-05-05T12:00:06.154Z,3.60
2023-05-05T12:03:08.778Z,3.23
2023-05-05T12:06:10.592Z,3.13
2023-05-05T12:09:16.340Z,3.03
2023-05-05T12:12:18.515Z,2.63
2023-05-05T12:15:30.867Z,3.07
2023-05-05T12:18:32.511Z,3.30
2023-05-05T12:21:35.130Z,3.40
2023-05-05T12:24:36.843Z,3.00
2023-05-05T12:27:38.708Z,3.17
2023-05-05T12:30:40.530Z,3.13
2023-05-05T12:33:42.840Z,3.03
2023-05-05T12:36:45.158Z,3.50
2023-05-05T12:39:47.310Z,4.33
2023-05-05T12:42:49.126Z,4.53
2023-05-05T12:46:03.679Z,3.40
2023-05-05T12:49:06.858Z,3.10
2023-05-05T12:52:10.035Z,2.80
2023-05-05T12:55:12.730Z,2.93
2023-05-05T12:58:14.464Z,3.00
2023-05-05T13:01:16.082Z,2.73
2023-05-05T13:04:18.358Z,2.57
2023-05-05T13:07:23.120Z,2.67
2023-05-05T13:10:31.240Z,2.37
2023-05-05T13:13:32.999Z,2.87
2023-05-05T13:16:34.762Z,2.90
2023-05-05T13:19:41.842Z,2.90
2023-05-05T13:22:43.595Z,4.20
2023-05-05T13:25:47.736Z,2.50
2023-05-05T13:28:49.455Z,2.67
2023-05-05T13:31:51.098Z,2.30
2023-05-05T13:34:52.959Z,2.77
2023-05-05T13:37:54.550Z,2.73
2023-05-05T13:40:56.243Z,2.63
2023-05-05T13:43:57.837Z,2.80
2023-05-05T13:46:59.509Z,2.73
2023-05-05T13:50:02.016Z,2.67
2023-05-05T13:53:04.045Z,5.63
2023-05-05T13:56:06.295Z,4.60
2023-05-05T13:59:07.962Z,3.40
2023-05-05T14:02:09.616Z,3.10
2023-05-05T14:05:11.346Z,2.90
2023-05-05T14:08:13.599Z,4.23
2023-05-05T14:11:17.208Z,2.60
2023-05-05T14:14:19.624Z,3.10
2023-05-05T14:17:21.212Z,2.50
2023-05-05T14:20:23.055Z,3.13
2023-05-05T14:23:24.618Z,2.20
2023-05-05T14:26:26.248Z,2.33
2023-05-05T14:29:27.873Z,2.37
2023-05-05T14:32:29.424Z,2.80
2023-05-05T14:35:31.399Z,2.60
2023-05-05T14:38:33.075Z,2.80
2023-05-05T14:41:34.691Z,2.40
2023-05-05T14:44:36.632Z,2.93
2023-05-05T14:47:38.290Z,2.53
2023-05-05T14:50:42.143Z,3.07
2023-05-05T14:53:43.780Z,2.80
2023-05-05T14:56:45.393Z,2.67
2023-05-05T14:59:51.194Z,3.30
2023-05-05T15:02:52.867Z,2.67
2023-05-05T15:05:54.414Z,3.00
2023-05-05T15:08:56.044Z,2.93
2023-05-05T15:11:57.599Z,3.30
2023-05-05T15:14:59.194Z,2.80
2023-05-05T15:18:00.783Z,3.10
2023-05-05T15:21:02.388Z,2.40
2023-05-05T15:24:04.917Z,2.00
2023-05-05T15:27:06.623Z,2.80
2023-05-05T15:30:09.021Z,3.00
2023-05-05T15:33:10.720Z,5.37
2023-05-05T15:36:12.559Z,5.03
2023-05-05T15:39:14.273Z,2.83
2023-05-05T15:42:15.916Z,3.27
2023-05-05T15:45:17.718Z,4.63
2023-05-05T15:48:19.563Z,4.83
2023-05-05T15:51:21.297Z,2.67
2023-05-05T15:54:22.954Z,6.63
2023-05-05T15:57:24.662Z,2.27
2023-05-05T16:00:26.631Z,2.77
2023-05-05T16:03:28.604Z,2.30
2023-05-05T16:06:30.629Z,2.87
2023-05-05T16:09:32.267Z,2.10
2023-05-05T16:12:33.893Z,2.63
2023-05-05T16:15:35.806Z,2.20
2023-05-05T16:18:37.427Z,3.73
2023-05-05T16:21:38.998Z,3.30
2023-05-05T16:24:42.514Z,2.20
2023-05-05T16:27:46.197Z,1.93
2023-05-05T16:30:47.858Z,1.97
2023-05-05T16:33:49.480Z,2.83
2023-05-05T16:36:51.266Z,2.80
2023-05-05T16:39:52.934Z,2.10
2023-05-05T16:42:54.591Z,2.03
2023-05-05T16:45:56.363Z,3.33
2023-05-05T16:48:58.290Z,2.50
2023-05-05T16:51:59.966Z,2.90
2023-05-05T16:55:04.533Z,1.80
2023-05-05T16:58:06.150Z,1.90
2023-05-05T17:01:07.797Z,3.30
2023-05-05T17:04:09.760Z,3.93
2023-05-05T17:07:11.352Z,1.97
2023-05-05T17:10:12.944Z,2.20
2023-05-05T17:13:14.908Z,2.43
2023-05-05T17:16:16.600Z,2.50
2023-05-05T17:19:18.232Z,2.50
2023-05-05T17:22:19.860Z,1.90
2023-05-05T17:25:21.638Z,4.50
2023-05-05T17:28:23.283Z,2.60
2023-05-05T17:31:24.913Z,3.30
2023-05-05T17:34:26.493Z,2.57
2023-05-05T17:37:28.152Z,1.80
2023-05-05T17:40:29.829Z,4.00
2023-05-05T17:43:31.407Z,2.73
2023-05-05T17:46:33.069Z,2.80
2023-05-05T17:49:34.785Z,2.17
2023-05-05T17:52:36.506Z,2.37
2023-05-05T17:55:38.174Z,3.40
2023-05-05T17:58:39.765Z,4.90
2023-05-05T18:01:41.530Z,2.20
2023-05-05T18:04:43.449Z,2.47
2023-05-05T18:07:45.441Z,2.10
2023-05-05T18:10:47.021Z,4.97
2023-05-05T18:13:48.580Z,4.33
2023-05-05T18:16:53.047Z,7.50
2023-05-05T18:19:54.849Z,5.80
2023-05-05T18:22:56.529Z,2.97
2023-05-05T18:25:58.134Z,3.30
2023-05-05T18:28:59.722Z,1.97
2023-05-05T18:32:01.728Z,6.03
2023-05-05T18:35:03.541Z,2.80
2023-05-05T18:38:05.298Z,1.90
2023-05-05T18:41:07.104Z,4.10
2023-05-05T18:44:08.798Z,3.70
2023-05-05T18:47:10.581Z,6.27
2023-05-05T18:50:12.755Z,3.50
2023-05-05T18:53:16.496Z,2.97
2023-05-05T18:56:18.054Z,7.30
2023-05-05T18:59:20.820Z,6.60
2023-05-05T19:02:22.481Z,6.03
2023-05-05T19:05:24.207Z,4.90
2023-05-05T19:08:25.819Z,6.27
2023-05-05T19:11:27.443Z,2.80
2023-05-05T19:14:29.347Z,4.23
2023-05-05T19:17:32.182Z,4.03
2023-05-05T19:20:33.827Z,4.20
2023-05-05T19:23:36.141Z,3.47
2023-05-05T19:26:37.823Z,4.77
2023-05-05T19:29:40.304Z,7.10
2023-05-05T19:32:41.976Z,7.93
2023-05-05T19:35:44.152Z,7.10
2023-05-05T19:38:46.525Z,6.03
2023-05-05T19:41:48.298Z,6.60
2023-05-05T19:44:49.914Z,5.43
2023-05-05T19:47:51.579Z,6.50
2023-05-05T19:50:53.195Z,7.40
2023-05-05T19:53:54.774Z,5.63
2023-05-05T19:57:00.538Z,6.07
2023-05-05T20:00:02.379Z,4.00
2023-05-05T20:03:04.151Z,5.60
2023-05-05T20:06:06.055Z,7.17
2023-05-05T20:09:08.492Z,5.30
2023-05-05T20:12:10.776Z,4.30
2023-05-05T20:15:18.390Z,3.87
2023-05-05T20:18:20.144Z,5.67
2023-05-05T20:21:21.811Z,4.23
2023-05-05T20:24:23.368Z,4.70
2023-05-05T20:27:26.650Z,8.33
2023-05-05T20:30:29.601Z,3.80
2023-05-05T20:33:31.320Z,3.50
2023-05-05T20:36:32.959Z,4.40
2023-05-05T20:39:34.601Z,5.33
2023-05-05T20:42:36.973Z,3.53
2023-05-05T20:45:38.539Z,3.73
2023-05-05T20:48:42.734Z,5.07
2023-05-05T20:51:44.765Z,4.80
2023-05-05T20:54:46.424Z,11.70
2023-05-05T20:57:48.026Z,6.63
2023-05-05T21:00:49.796Z,6.10
2023-05-05T21:03:51.628Z,5.93
2023-05-05T21:06:53.250Z,4.50
2023-05-05T21:09:54.939Z,6.03
2023-05-05T21:12:56.670Z,8.60
2023-05-05T21:15:58.340Z,5.20
2023-05-05T21:19:00.394Z,5.20
2023-05-05T21:22:02.375Z,6.27
2023-05-05T21:25:17.606Z,4.40
2023-05-05T21:28:19.223Z,5.63
2023-05-05T21:31:22.452Z,4.70
2023-05-05T21:34:24.240Z,5.60
2023-05-05T21:37:25.937Z,5.50
2023-05-05T21:40:27.575Z,5.80
2023-05-05T21:43:29.227Z,3.83
2023-05-05T21:46:31.279Z,6.57
2023-05-05T21:49:33.020Z,4.17
2023-05-05T21:52:34.658Z,8.20
2023-05-05T21:55:36.382Z,6.80
2023-05-05T21:58:37.974Z,6.90
2023-05-05T22:01:39.562Z,4.70
2023-05-05T22:04:41.203Z,7.40
2023-05-05T22:07:42.769Z,5.17
2023-05-05T22:10:44.755Z,5.47
2023-05-05T22:13:46.732Z,3.10
2023-05-05T22:16:48.487Z,4.83
2023-05-05T22:19:50.955Z,3.80
2023-05-05T22:22:52.527Z,3.80
2023-05-05T22:25:54.372Z,7.30
2023-05-05T22:28:56.996Z,6.80
2023-05-05T22:31:58.621Z,10.90
2023-05-05T22:35:01.180Z,8.20
2023-05-05T22:38:03.089Z,9.80
2023-05-05T22:41:07.207Z,7.90
2023-05-05T22:44:08.881Z,9.40
2023-05-05T22:47:10.560Z,7.53
2023-05-05T22:50:12.381Z,8.03
2023-05-05T22:53:13.962Z,7.20
2023-05-05T22:56:15.630Z,8.60
2023-05-05T22:59:17.249Z,8.27
2023-05-05T23:02:18.833Z,8.07
2023-05-05T23:05:20.627Z,8.03
2023-05-05T23:08:23.954Z,7.63
2023-05-05T23:11:26.138Z,6.40
2023-05-05T23:14:27.689Z,7.23
2023-05-05T23:17:29.279Z,11.00
2023-05-05T23:20:30.957Z,9.07
2023-05-05T23:23:32.579Z,9.10
2023-05-05T23:26:34.563Z,9.13
2023-05-05T23:29:36.143Z,9.70
2023-05-05T23:32:37.842Z,12.93
2023-05-05T23:35:43.146Z,8.63
2023-05-05T23:38:45.626Z,7.80
2023-05-05T23:41:47.192Z,16.60
2023-05-05T23:44:48.768Z,9.10
2023-05-05T23:47:50.414Z,7.77
2023-05-05T23:50:52.564Z,8.43
2023-05-05T23:53:56.608Z,11.03
2023-05-05T23:57:00.193Z,7.33
